메인 페이지
METAR-TAF:

METAR-TAF

공항 :

나타우, 히우그란지두노르치, 브라질

위도: 05-46-05S, 경도: 035-22-34W, 고도: 88m

현재 날씨관측

예보는 1 시간 8분 전, 07:00시(UTC)에 발표되었습니다.
남서4kt
온도 24°C
습도 83%
기압 1014 hPa
시정 10km 이상
1500m 미만 상공 구름 및 적란운 없음

METAR: SBSG 150700Z 23004KT CAVOK 24/21 Q1014

시각: 05:08 (08:08 UTC)

예보

예보는 6 시간 8분 전, 02:00시(UTC)에 발표되었습니다.
예보 대상 시간: 15일 06시부터 16일 06시까지 (UTC)
남서5kt
시정: 8000m
고도 2000ft 상공 구름 보통
전환 중
15일 10시부터 15일 12시까지 (UTC)
남남동15kt
고도 2000ft 상공 구름 많음
전환 중
15일 21시부터 15일 22시까지 (UTC)
10kt
전환 중
16일 02시부터 16일 04시까지 (UTC)
남서4kt

TAF: SBSG 150200Z 1506/1606 22005KT 8000 SCT020 TN23/1507Z TX31/1514Z BECMG 1510/1512 16015KT BKN020 BECMG 1521/1522 17010KT BECMG 1602/1604 22004KT RMK PEI

4,000개 이상의 공항 관측 자료 및 예보 (METAR 및 TAF 보고).

지도상에서 검색 가능한 기상관측소가 노란 점과 빨간 점으로 표시되어 있습니다.

기상관측소 명을 보려면 표시 위로 마우스를 이동하세요.

날씨 관측과 예보를 보려면 클릭하세요.

지도 변경 : 확대하려면 엑스 표시가 있는 녹색 버튼, 축소하려면 빼기 표시가 있는 녹색 버튼, 다음 페이지의 지도를 보려면 녹색 화살표를 클릭하세요.


METAR-TAF: